createdAt,value
2022-09-15T00:00:26.953Z,99084.94
2022-09-15T00:02:53.447Z,99089.34
2022-09-15T00:05:20.298Z,99092.16
2022-09-15T00:07:47.025Z,99093.03
2022-09-15T00:10:13.373Z,99093.53
2022-09-15T00:12:39.772Z,99092.34
2022-09-15T00:15:06.738Z,99086.28
2022-09-15T00:17:33.144Z,99090.06
2022-09-15T00:19:59.530Z,99089.72
2022-09-15T00:22:26.199Z,99084.19
2022-09-15T00:24:52.547Z,99095.75
2022-09-15T00:27:18.903Z,99088.03
2022-09-15T00:29:45.240Z,99090.25
2022-09-15T00:32:11.597Z,99090.59
2022-09-15T00:34:37.987Z,99089.03
2022-09-15T00:37:04.351Z,99085.63
2022-09-15T00:39:30.716Z,99082.91
2022-09-15T00:41:57.132Z,99087.69
2022-09-15T00:44:23.407Z,99084.88
2022-09-15T00:47:15.272Z,99082.69
2022-09-15T00:49:41.125Z,99084.19
2022-09-15T00:52:19.213Z,99074.38
2022-09-15T00:55:31.872Z,99080.47
2022-09-15T00:58:01.998Z,99075.59
2022-09-15T01:00:29.411Z,99081.13
2022-09-15T01:02:57.155Z,99076.59
2022-09-15T01:05:30.187Z,99079.09
2022-09-15T01:08:01.737Z,99078.22
2022-09-15T01:10:30.119Z,99077.53
2022-09-15T01:13:06.820Z,99075.69
2022-09-15T01:16:07.007Z,99080.66
2022-09-15T01:18:45.232Z,99074.66
2022-09-15T01:21:22.048Z,99078.16
2022-09-15T01:24:14.013Z,99082.97
2022-09-15T01:27:30.570Z,99080.72
2022-09-15T01:30:08.351Z,99075.59
2022-09-15T01:33:04.005Z,99069.50
2022-09-15T01:35:47.198Z,99079.84
2022-09-15T01:38:41.560Z,99081.31
2022-09-15T01:41:21.712Z,99074.34
2022-09-15T01:43:59.373Z,99083.88
2022-09-15T01:46:31.310Z,99079.28
2022-09-15T01:49:00.660Z,99080.94
2022-09-15T01:51:28.377Z,99078.28
2022-09-15T01:53:56.512Z,99084.97
2022-09-15T01:56:22.910Z,99083.00
2022-09-15T01:58:51.168Z,99077.34
2022-09-15T02:01:26.431Z,99084.78
2022-09-15T02:04:07.422Z,99091.72
2022-09-15T02:06:43.072Z,99088.03
2022-09-15T02:09:13.788Z,99094.09
2022-09-15T02:11:57.770Z,99091.88
2022-09-15T02:14:43.041Z,99083.00
2022-09-15T02:17:15.434Z,99087.56
2022-09-15T02:19:48.622Z,99083.94
2022-09-15T02:22:23.306Z,99093.72
2022-09-15T02:25:12.563Z,99102.66
2022-09-15T02:27:45.804Z,99096.41
2022-09-15T02:30:15.870Z,99096.34
2022-09-15T02:32:49.815Z,99102.84
2022-09-15T02:35:17.188Z,99098.03
2022-09-15T02:37:44.261Z,99093.28
2022-09-15T02:40:11.376Z,99109.44
2022-09-15T02:42:39.200Z,99100.63
2022-09-15T02:45:06.543Z,99109.56
2022-09-15T02:47:32.893Z,99106.75
2022-09-15T02:49:59.235Z,99110.53
2022-09-15T02:52:26.128Z,99107.09
2022-09-15T02:54:52.561Z,99114.47
2022-09-15T02:57:19.707Z,99113.72
2022-09-15T03:00:04.344Z,99109.69
2022-09-15T03:02:31.569Z,99110.56
2022-09-15T03:04:58.135Z,99117.66
2022-09-15T03:07:24.856Z,99121.06
2022-09-15T03:09:51.505Z,99129.13
2022-09-15T03:12:17.863Z,99123.09
2022-09-15T03:14:44.463Z,99136.16
2022-09-15T03:17:10.896Z,99133.84
2022-09-15T03:19:37.344Z,99146.34
2022-09-15T03:22:03.688Z,99144.50
2022-09-15T03:24:30.097Z,99151.09
2022-09-15T03:26:56.459Z,99151.34
2022-09-15T03:29:23.030Z,99155.09
2022-09-15T03:31:49.784Z,99157.16
2022-09-15T03:34:16.325Z,99152.28
2022-09-15T03:36:43.092Z,99152.53
2022-09-15T03:39:11.390Z,99152.53
2022-09-15T03:41:37.878Z,99162.88
2022-09-15T03:44:04.991Z,99157.53
2022-09-15T03:46:31.481Z,99155.47
2022-09-15T03:48:57.841Z,99166.25
2022-09-15T03:51:24.475Z,99161.88
2022-09-15T03:53:50.975Z,99162.06
2022-09-15T03:56:23.502Z,99170.66
2022-09-15T03:58:50.967Z,99164.03
2022-09-15T04:01:19.037Z,99160.44
2022-09-15T04:03:50.611Z,99161.00
2022-09-15T04:06:19.270Z,99170.88
2022-09-15T04:08:45.712Z,99172.72
2022-09-15T04:11:12.717Z,99176.63
2022-09-15T04:13:40.381Z,99185.09
2022-09-15T04:16:15.573Z,99183.09
2022-09-15T04:18:42.498Z,99190.44
2022-09-15T04:21:13.024Z,99187.00
2022-09-15T04:23:40.448Z,99192.03
2022-09-15T04:26:11.769Z,99195.09
2022-09-15T04:28:38.870Z,99198.13
2022-09-15T04:31:11.125Z,99202.69
2022-09-15T04:33:40.493Z,99205.94
2022-09-15T04:36:09.848Z,99200.47
2022-09-15T04:38:36.711Z,99202.38
2022-09-15T04:41:04.185Z,99207.16
2022-09-15T04:43:30.956Z,99206.03
2022-09-15T04:46:00.455Z,99212.41
2022-09-15T04:48:27.585Z,99211.94
2022-09-15T04:50:54.877Z,99217.44
2022-09-15T04:53:21.377Z,99214.22
2022-09-15T04:55:47.777Z,99220.22
2022-09-15T04:58:14.268Z,99227.41
2022-09-15T05:00:45.667Z,99227.06
2022-09-15T05:03:14.209Z,99229.13
2022-09-15T05:05:41.508Z,99224.16
2022-09-15T05:08:08.270Z,99232.44
2022-09-15T05:10:34.879Z,99238.19
2022-09-15T05:13:01.270Z,99239.25
2022-09-15T05:15:27.697Z,99244.16
2022-09-15T05:17:54.091Z,99247.63
2022-09-15T05:20:20.479Z,99249.97
2022-09-15T05:22:47.050Z,99252.28
2022-09-15T05:25:13.670Z,99248.47
2022-09-15T05:27:40.399Z,99258.06
2022-09-15T05:30:32.720Z,99256.13
2022-09-15T05:32:53.905Z,99259.69
2022-09-15T05:35:20.292Z,99262.03
2022-09-15T05:37:46.947Z,99270.06
2022-09-15T05:40:13.364Z,99278.47
2022-09-15T05:42:40.353Z,99279.22
2022-09-15T05:45:07.503Z,99274.47
2022-09-15T05:47:33.861Z,99275.88
2022-09-15T05:50:00.221Z,99269.03
2022-09-15T05:52:26.591Z,99284.56
2022-09-15T05:54:56.938Z,99281.59
2022-09-15T05:57:25.290Z,99283.72
2022-09-15T05:59:51.620Z,99287.03
2022-09-15T06:02:18.156Z,99293.06
2022-09-15T06:04:44.569Z,99289.53
2022-09-15T06:07:10.976Z,99293.81
2022-09-15T06:09:37.945Z,99288.56
2022-09-15T06:12:04.407Z,99297.78
2022-09-15T06:14:30.748Z,99294.66
2022-09-15T06:16:57.150Z,99293.13
2022-09-15T06:19:23.470Z,99286.31
2022-09-15T06:21:49.815Z,99287.09
2022-09-15T06:24:16.168Z,99290.88
2022-09-15T06:26:42.557Z,99302.63
2022-09-15T06:29:11.851Z,99299.94
2022-09-15T06:31:38.487Z,99311.31
2022-09-15T06:34:05.331Z,99309.69
2022-09-15T06:36:32.852Z,99312.72
2022-09-15T06:38:59.793Z,99312.03
2022-09-15T06:41:38.133Z,99320.22
2022-09-15T06:44:09.696Z,99322.78
2022-09-15T06:46:36.207Z,99327.13
2022-09-15T06:49:02.685Z,99319.56
2022-09-15T06:51:31.341Z,99331.50
2022-09-15T06:53:57.874Z,99326.59
2022-09-15T06:56:24.271Z,99326.47
2022-09-15T06:58:50.624Z,99333.50
2022-09-15T07:01:25.093Z,99339.22
2022-09-15T07:03:51.915Z,99340.00
2022-09-15T07:06:18.784Z,99342.94
2022-09-15T07:08:46.537Z,99350.38
2022-09-15T07:11:13.828Z,99348.97
2022-09-15T07:13:40.931Z,99359.41
2022-09-15T07:16:09.631Z,99355.50
2022-09-15T07:18:39.715Z,99362.50
2022-09-15T07:21:11.866Z,99361.84
2022-09-15T07:23:38.265Z,99357.94
2022-09-15T07:26:06.778Z,99367.66
2022-09-15T07:28:34.018Z,99363.63
2022-09-15T07:31:00.482Z,99362.81
2022-09-15T07:33:30.899Z,99366.63
2022-09-15T07:35:57.275Z,99371.69
2022-09-15T07:38:23.837Z,99373.06
2022-09-15T07:40:50.259Z,99374.03
2022-09-15T07:43:16.648Z,99374.31
2022-09-15T07:45:43.036Z,99388.00
2022-09-15T07:48:09.472Z,99386.22
2022-09-15T07:50:35.817Z,99389.25
2022-09-15T07:53:02.145Z,99399.66
2022-09-15T07:55:30.330Z,99398.97
2022-09-15T07:57:58.570Z,99394.41
2022-09-15T08:00:26.062Z,99392.38
2022-09-15T08:02:52.890Z,99398.44
2022-09-15T08:05:19.808Z,99401.22
2022-09-15T08:07:46.251Z,99405.44
2022-09-15T08:10:12.740Z,99411.22
2022-09-15T08:12:40.633Z,99406.44
2022-09-15T08:15:07.358Z,99417.22
2022-09-15T08:17:34.716Z,99415.47
2022-09-15T08:20:01.581Z,99421.09
2022-09-15T08:22:27.940Z,99427.88
2022-09-15T08:24:54.260Z,99428.34
2022-09-15T08:27:20.606Z,99432.59
2022-09-15T08:29:46.990Z,99432.38
2022-09-15T08:32:13.347Z,99435.31
2022-09-15T08:34:39.784Z,99439.53
2022-09-15T08:37:06.140Z,99450.78
2022-09-15T08:39:32.502Z,99443.75
2022-09-15T08:42:00.473Z,99435.59
2022-09-15T08:44:44.525Z,99441.75
2022-09-15T08:47:32.224Z,99438.06
2022-09-15T08:50:14.505Z,99439.97
2022-09-15T08:52:48.810Z,99446.97
2022-09-15T08:55:33.605Z,99447.91
2022-09-15T08:58:00.025Z,99448.69
2022-09-15T09:00:26.922Z,99442.59
2022-09-15T09:03:14.606Z,99445.03
2022-09-15T09:06:31.768Z,99450.69
2022-09-15T09:09:19.434Z,99451.47
2022-09-15T09:11:48.719Z,99454.16
2022-09-15T09:14:42.560Z,99455.13
2022-09-15T09:17:33.096Z,99453.47
2022-09-15T09:20:08.437Z,99457.63
2022-09-15T09:22:39.160Z,99466.59
2022-09-15T09:25:26.262Z,99465.56
2022-09-15T09:27:54.314Z,99463.56
2022-09-15T09:30:23.290Z,99458.13
2022-09-15T09:32:54.002Z,99473.09
2022-09-15T09:35:29.658Z,99466.91
2022-09-15T09:37:56.683Z,99463.94
2022-09-15T09:40:23.253Z,99467.41
2022-09-15T09:42:49.941Z,99467.56
2022-09-15T09:45:19.150Z,99464.75
2022-09-15T09:47:46.435Z,99463.88
2022-09-15T09:50:32.457Z,99466.19
2022-09-15T09:52:59.475Z,99464.88
2022-09-15T09:55:27.930Z,99461.06
2022-09-15T09:58:11.181Z,99457.88
2022-09-15T10:00:40.210Z,99461.81
2022-09-15T10:03:17.228Z,99457.72
2022-09-15T10:05:44.852Z,99457.59
2022-09-15T10:08:20.055Z,99459.72
2022-09-15T10:10:54.077Z,99460.81
2022-09-15T10:13:21.568Z,99460.25
2022-09-15T10:16:02.228Z,99462.84
2022-09-15T10:18:33.519Z,99461.69
2022-09-15T10:21:03.194Z,99448.94
2022-09-15T10:23:32.297Z,99458.47
2022-09-15T10:26:20.890Z,99450.19
2022-09-15T10:29:12.557Z,99449.53
2022-09-15T10:31:40.302Z,99457.31
2022-09-15T10:34:25.876Z,99444.13
2022-09-15T10:37:06.187Z,99445.78
2022-09-15T10:40:20.316Z,99452.19
2022-09-15T10:42:53.631Z,99446.28
2022-09-15T10:45:32.894Z,99464.44
2022-09-15T10:48:03.116Z,99457.44
2022-09-15T10:50:33.802Z,99454.81
2022-09-15T10:53:18.336Z,99461.53
2022-09-15T10:56:12.761Z,99469.03
2022-09-15T10:58:56.622Z,99474.69
2022-09-15T11:01:28.686Z,99471.81
2022-09-15T11:04:17.356Z,99472.25
2022-09-15T11:07:10.941Z,99460.59
2022-09-15T11:09:47.548Z,99473.34
2022-09-15T11:12:29.539Z,99469.16
2022-09-15T11:15:07.039Z,99473.09
2022-09-15T11:18:00.914Z,99483.38
2022-09-15T11:20:59.729Z,99477.47
2022-09-15T11:23:34.684Z,99479.19
2022-09-15T11:26:09.712Z,99486.66
2022-09-15T11:28:45.092Z,99491.56
2022-09-15T11:31:23.792Z,99491.56
2022-09-15T11:33:56.716Z,99487.13
2022-09-15T11:36:25.175Z,99492.69
2022-09-15T11:39:18.891Z,99491.81
2022-09-15T11:41:56.389Z,99497.22
2022-09-15T11:44:32.787Z,99489.19
2022-09-15T11:47:11.448Z,99490.03
2022-09-15T11:49:45.090Z,99488.00
2022-09-15T11:52:29.575Z,99487.78
2022-09-15T11:55:05.067Z,99489.44
2022-09-15T11:57:43.156Z,99484.19
2022-09-15T12:00:14.673Z,99487.59
2022-09-15T12:02:53.073Z,99488.13
2022-09-15T12:05:24.297Z,99488.34
2022-09-15T12:08:00.812Z,99492.38
2022-09-15T12:10:31.695Z,99480.59
2022-09-15T12:13:00.204Z,99484.47
2022-09-15T12:15:27.444Z,99481.94
2022-09-15T12:17:56.995Z,99475.88
2022-09-15T12:20:46.537Z,99481.22
2022-09-15T12:23:40.584Z,99476.94
2022-09-15T12:26:17.473Z,99480.38
2022-09-15T12:28:46.932Z,99475.66
2022-09-15T12:31:13.335Z,99484.44
2022-09-15T12:33:42.778Z,99481.47
2022-09-15T12:37:03.504Z,99489.19
2022-09-15T12:39:46.975Z,99497.75
2022-09-15T12:42:18.870Z,99506.91
2022-09-15T12:44:47.890Z,99494.06
2022-09-15T12:47:41.479Z,99501.53
2022-09-15T12:50:08.372Z,99510.16
2022-09-15T12:52:48.123Z,99503.25
2022-09-15T12:55:21.080Z,99505.00
2022-09-15T12:57:52.661Z,99500.81
2022-09-15T13:00:42.509Z,99499.66
2022-09-15T13:03:51.214Z,99502.59
2022-09-15T13:06:35.873Z,99508.56
2022-09-15T13:09:02.167Z,99507.72
2022-09-15T13:11:36.370Z,99505.63
2022-09-15T13:14:10.626Z,99507.06
2022-09-15T13:16:56.576Z,99494.47
2022-09-15T13:19:29.220Z,99495.53
2022-09-15T13:22:01.524Z,99498.69
2022-09-15T13:24:38.083Z,99503.22
2022-09-15T13:27:06.210Z,99503.19
2022-09-15T13:29:38.242Z,99504.00
2022-09-15T13:32:21.369Z,99507.81
2022-09-15T13:35:19.526Z,99501.84
2022-09-15T13:38:22.061Z,99495.75
2022-09-15T13:41:10.028Z,99496.50
2022-09-15T13:44:01.339Z,99498.44
2022-09-15T13:46:46.895Z,99495.88
2022-09-15T13:49:43.838Z,99498.13
2022-09-15T13:52:24.121Z,99494.69
2022-09-15T13:55:17.125Z,99494.41
2022-09-15T14:00:53.527Z,99491.63
2022-09-15T14:03:25.739Z,99486.66
2022-09-15T14:08:30.266Z,99489.16
2022-09-15T14:11:01.027Z,99496.00
2022-09-15T14:13:29.895Z,99489.97
2022-09-15T14:15:57.408Z,99497.84
2022-09-15T14:18:23.997Z,99497.09
2022-09-15T14:21:02.058Z,99493.16
2022-09-15T14:23:29.046Z,99489.25
2022-09-15T14:25:59.633Z,99485.47
2022-09-15T14:28:32.673Z,99485.31
2022-09-15T14:31:00.606Z,99482.16
2022-09-15T14:33:37.924Z,99486.94
2022-09-15T14:36:34.485Z,99487.34
2022-09-15T14:39:08.800Z,99480.06
2022-09-15T14:41:36.541Z,99484.16
2022-09-15T14:47:26.193Z,99478.75
2022-09-15T14:50:08.004Z,99493.31
2022-09-15T14:52:40.175Z,99488.78
2022-09-15T14:55:13.853Z,99486.69
2022-09-15T15:00:22.813Z,99477.84
2022-09-15T15:03:31.526Z,99478.91
2022-09-15T15:06:12.737Z,99477.25
2022-09-15T15:09:03.298Z,99473.53
2022-09-15T15:11:32.621Z,99482.78
2022-09-15T15:13:59.453Z,99480.75
2022-09-15T15:16:31.779Z,99476.31
2022-09-15T15:18:58.740Z,99481.63
2022-09-15T15:21:43.678Z,99487.91
2022-09-15T15:24:12.743Z,99484.72
2022-09-15T15:26:43.897Z,99482.59
2022-09-15T15:29:47.051Z,99482.06
2022-09-15T15:32:16.336Z,99484.44
2022-09-15T15:34:51.935Z,99477.50
2022-09-15T15:37:31.460Z,99479.59
2022-09-15T15:40:02.155Z,99473.69
2022-09-15T15:42:29.316Z,99482.13
2022-09-15T15:45:05.172Z,99490.91
2022-09-15T15:47:35.707Z,99483.94
2022-09-15T15:50:14.704Z,99489.06
2022-09-15T15:52:42.325Z,99490.56
2022-09-15T15:55:13.512Z,99490.31
2022-09-15T15:57:40.120Z,99498.84
2022-09-15T16:00:25.721Z,99495.38
2022-09-15T16:02:53.238Z,99492.41
2022-09-15T16:05:22.024Z,99490.03
2022-09-15T16:07:51.155Z,99491.28
2022-09-15T16:10:20.177Z,99488.56
2022-09-15T16:12:46.601Z,99484.56
2022-09-15T16:15:19.226Z,99487.78
2022-09-15T16:17:46.822Z,99490.72
2022-09-15T16:20:15.898Z,99485.53
2022-09-15T16:22:42.881Z,99487.72
2022-09-15T16:25:15.747Z,99486.50
2022-09-15T16:27:42.390Z,99481.69
2022-09-15T16:30:11.928Z,99481.38
2022-09-15T16:32:40.174Z,99489.59
2022-09-15T16:35:37.278Z,99486.97
2022-09-15T16:38:03.688Z,99491.00
2022-09-15T16:40:30.113Z,99491.09
2022-09-15T16:42:56.662Z,99496.06
2022-09-15T16:45:35.149Z,99488.69
2022-09-15T16:48:04.823Z,99491.13
2022-09-15T16:50:31.279Z,99490.13
2022-09-15T16:52:58.362Z,99490.38
2022-09-15T16:55:31.173Z,99498.81
2022-09-15T16:57:59.744Z,99488.41
2022-09-15T17:00:27.859Z,99487.28
2022-09-15T17:02:54.325Z,99486.28
2022-09-15T17:05:36.261Z,99484.88
2022-09-15T17:08:04.803Z,99485.94
2022-09-15T17:10:31.582Z,99486.28
2022-09-15T17:12:57.963Z,99490.34
2022-09-15T17:15:39.009Z,99486.97
2022-09-15T17:18:07.602Z,99490.75
2022-09-15T17:20:39.422Z,99491.84
2022-09-15T17:23:19.449Z,99503.25
2022-09-15T17:25:51.890Z,99501.53
2022-09-15T17:28:22.724Z,99502.63
2022-09-15T17:30:51.327Z,99513.78
2022-09-15T17:33:20.422Z,99511.34
2022-09-15T17:35:47.540Z,99508.53
2022-09-15T17:38:14.839Z,99503.13
2022-09-15T17:40:41.634Z,99507.19
2022-09-15T17:43:15.440Z,99509.16
2022-09-15T17:45:42.333Z,99509.16
2022-09-15T17:48:09.629Z,99511.94
2022-09-15T17:50:38.023Z,99508.66
2022-09-15T17:53:37.075Z,99516.00
2022-09-15T17:56:03.485Z,99511.44
2022-09-15T17:58:31.308Z,99516.00
2022-09-15T18:00:58.436Z,99531.94
2022-09-15T18:03:30.258Z,99531.22
2022-09-15T18:05:58.495Z,99527.91
2022-09-15T18:08:26.136Z,99525.56
2022-09-15T18:10:52.760Z,99527.28
2022-09-15T18:13:22.039Z,99531.56
2022-09-15T18:15:49.224Z,99541.84
2022-09-15T18:18:19.690Z,99549.53
2022-09-15T18:20:46.676Z,99560.63
2022-09-15T18:23:14.565Z,99557.97
2022-09-15T18:25:41.320Z,99564.94
2022-09-15T18:28:07.714Z,99569.06
2022-09-15T18:30:38.351Z,99581.94
2022-09-15T18:33:04.760Z,99587.44
2022-09-15T18:35:31.097Z,99587.53
2022-09-15T18:37:59.235Z,99600.06
2022-09-15T18:40:27.256Z,99602.47
2022-09-15T18:42:54.159Z,99608.50
2022-09-15T18:45:22.172Z,99610.00
2022-09-15T18:47:50.364Z,99611.31
2022-09-15T18:50:19.187Z,99614.88
2022-09-15T18:52:46.446Z,99621.63
2022-09-15T18:55:18.934Z,99627.63
2022-09-15T18:57:45.793Z,99630.44
2022-09-15T19:00:23.905Z,99620.75
2022-09-15T19:02:57.034Z,99634.31
2022-09-15T19:05:23.479Z,99628.88
2022-09-15T19:07:49.844Z,99634.66
2022-09-15T19:10:17.301Z,99638.81
2022-09-15T19:12:43.725Z,99622.00
2022-09-15T19:15:11.632Z,99626.72
2022-09-15T19:17:39.298Z,99620.75
2022-09-15T19:20:07.381Z,99623.44
2022-09-15T19:22:34.440Z,99624.84
2022-09-15T19:25:01.049Z,99625.63
2022-09-15T19:27:27.467Z,99635.81
2022-09-15T19:29:53.817Z,99631.19
2022-09-15T19:32:20.954Z,99642.78
2022-09-15T19:34:47.867Z,99636.25
2022-09-15T19:37:18.874Z,99643.22
2022-09-15T19:39:46.430Z,99636.03
2022-09-15T19:42:13.395Z,99638.84
2022-09-15T19:44:41.326Z,99642.75
2022-09-15T19:47:08.579Z,99647.03
2022-09-15T19:49:35.100Z,99640.00
2022-09-15T19:52:01.517Z,99644.88
2022-09-15T19:54:29.605Z,99647.03
2022-09-15T19:56:56.454Z,99650.72
2022-09-15T19:59:27.394Z,99656.72
2022-09-15T20:01:56.788Z,99651.13
2022-09-15T20:04:23.231Z,99649.97
2022-09-15T20:06:49.580Z,99659.84
2022-09-15T20:09:16.182Z,99655.00
2022-09-15T20:11:42.531Z,99655.19
2022-09-15T20:14:08.948Z,99655.09
2022-09-15T20:16:35.715Z,99659.19
2022-09-15T20:19:03.717Z,99662.00
2022-09-15T20:21:49.665Z,99658.97
2022-09-15T20:24:17.817Z,99650.41
2022-09-15T20:26:44.215Z,99652.13
2022-09-15T20:29:10.752Z,99650.47
2022-09-15T20:31:37.262Z,99658.03
2022-09-15T20:34:03.728Z,99666.31
2022-09-15T20:36:35.962Z,99662.06
2022-09-15T20:39:04.565Z,99662.38
2022-09-15T20:41:34.213Z,99663.53
2022-09-15T20:44:00.798Z,99664.41
2022-09-15T20:46:31.329Z,99673.88
2022-09-15T20:48:57.703Z,99676.38
2022-09-15T20:51:27.743Z,99670.16
2022-09-15T20:53:55.774Z,99667.09
2022-09-15T20:56:25.520Z,99668.06
2022-09-15T20:58:57.694Z,99666.50
2022-09-15T21:01:36.531Z,99671.13
2022-09-15T21:04:03.735Z,99670.88
2022-09-15T21:06:31.469Z,99670.16
2022-09-15T21:08:58.508Z,99670.34
2022-09-15T21:11:31.634Z,99673.44
2022-09-15T21:13:58.754Z,99675.06
2022-09-15T21:16:27.761Z,99675.53
2022-09-15T21:18:56.598Z,99673.25
2022-09-15T21:21:28.280Z,99669.41
2022-09-15T21:24:01.136Z,99678.28
2022-09-15T21:26:33.051Z,99676.97
2022-09-15T21:28:59.675Z,99675.22
2022-09-15T21:31:31.899Z,99678.81
2022-09-15T21:33:59.133Z,99678.69
2022-09-15T21:36:28.078Z,99678.19
2022-09-15T21:38:56.301Z,99691.34
2022-09-15T21:41:25.957Z,99687.31
2022-09-15T21:43:54.860Z,99688.63
2022-09-15T21:46:24.556Z,99698.22
2022-09-15T21:48:51.676Z,99693.13
2022-09-15T21:51:24.710Z,99704.72
2022-09-15T21:53:53.686Z,99695.53
2022-09-15T21:56:20.816Z,99701.78
2022-09-15T21:58:47.592Z,99687.09
2022-09-15T22:01:19.935Z,99701.56
2022-09-15T22:03:55.205Z,99695.81
2022-09-15T22:06:27.583Z,99692.28
2022-09-15T22:08:55.272Z,99701.03
2022-09-15T22:11:22.625Z,99694.78
2022-09-15T22:13:49.409Z,99700.31
2022-09-15T22:16:18.533Z,99704.91
2022-09-15T22:18:45.614Z,99701.03
2022-09-15T22:21:27.864Z,99692.38
2022-09-15T22:23:56.353Z,99700.72
2022-09-15T22:26:28.066Z,99698.03
2022-09-15T22:28:55.049Z,99695.06
2022-09-15T22:31:23.106Z,99706.19
2022-09-15T22:33:50.265Z,99704.34
2022-09-15T22:36:25.244Z,99703.66
2022-09-15T22:38:55.611Z,99705.97
2022-09-15T22:41:25.629Z,99706.06
2022-09-15T22:43:52.063Z,99699.66
2022-09-15T22:46:19.429Z,99695.06
2022-09-15T22:48:45.918Z,99702.25
2022-09-15T22:51:13.252Z,99689.59
2022-09-15T22:53:39.600Z,99705.03
2022-09-15T22:56:06.489Z,99700.06
2022-09-15T22:58:35.135Z,99700.81
2022-09-15T23:01:16.702Z,99703.59
2022-09-15T23:03:43.950Z,99705.75
2022-09-15T23:06:10.521Z,99702.84
2022-09-15T23:08:37.297Z,99710.03
2022-09-15T23:11:09.558Z,99701.97
2022-09-15T23:13:36.641Z,99701.13
2022-09-15T23:16:03.988Z,99698.03
2022-09-15T23:18:30.447Z,99699.88
2022-09-15T23:20:58.848Z,99703.97
2022-09-15T23:23:25.982Z,99697.47
2022-09-15T23:25:52.665Z,99694.91
2022-09-15T23:28:19.083Z,99694.50
2022-09-15T23:30:45.503Z,99693.63
2022-09-15T23:33:12.162Z,99694.09
2022-09-15T23:35:38.504Z,99698.03
2022-09-15T23:38:04.887Z,99705.13
2022-09-15T23:40:31.289Z,99697.28
2022-09-15T23:42:57.650Z,99699.97
2022-09-15T23:45:24.016Z,99705.03
2022-09-15T23:47:50.392Z,99702.16
2022-09-15T23:50:16.825Z,99703.50
2022-09-15T23:52:43.174Z,99709.16
2022-09-15T23:55:09.711Z,99703.28
2022-09-15T23:57:36.157Z,99697.28
